sensor_id;sensor_type;location;lat;lon;timestamp;P1;P2;P0
64697;PMS5003;51124;53.394;-6.294;2023-11-22T00:00:21;5;4;
64697;PMS5003;51124;53.394;-6.294;2023-11-22T00:02:49;4;4;
64697;PMS5003;51124;53.394;-6.294;2023-11-22T00:05:16;8;6;
64697;PMS5003;51124;53.394;-6.294;2023-11-22T00:07:43;7;7;
64697;PMS5003;51124;53.394;-6.294;2023-11-22T00:10:11;6;5;
64697;PMS5003;51124;53.394;-6.294;2023-11-22T00:12:38;4;4;
64697;PMS5003;51124;53.394;-6.294;2023-11-22T00:15:06;6;6;
64697;PMS5003;51124;53.394;-6.294;2023-11-22T00:17:35;5;3;
64697;PMS5003;51124;53.394;-6.294;2023-11-22T00:20:03;5;4;
64697;PMS5003;51124;53.394;-6.294;2023-11-22T00:22:32;10;6;
64697;PMS5003;51124;53.394;-6.294;2023-11-22T00:24:59;6;6;
64697;PMS5003;51124;53.394;-6.294;2023-11-22T00:27:27;4;4;
64697;PMS5003;51124;53.394;-6.294;2023-11-22T00:29:55;5;5;
64697;PMS5003;51124;53.394;-6.294;2023-11-22T00:32:23;7;4;
64697;PMS5003;51124;53.394;-6.294;2023-11-22T00:34:52;5;4;
64697;PMS5003;51124;53.394;-6.294;2023-11-22T00:37:19;4;3;
64697;PMS5003;51124;53.394;-6.294;2023-11-22T00:39:47;4;4;
64697;PMS5003;51124;53.394;-6.294;2023-11-22T00:42:14;3;3;
64697;PMS5003;51124;53.394;-6.294;2023-11-22T00:44:42;5;5;
64697;PMS5003;51124;53.394;-6.294;2023-11-22T00:47:09;6;5;
64697;PMS5003;51124;53.394;-6.294;2023-11-22T00:49:37;3;3;
64697;PMS5003;51124;53.394;-6.294;2023-11-22T00:52:04;4;4;
64697;PMS5003;51124;53.394;-6.294;2023-11-22T00:54:31;5;5;
64697;PMS5003;51124;53.394;-6.294;2023-11-22T00:56:59;4;4;
64697;PMS5003;51124;53.394;-6.294;2023-11-22T00:59:26;6;6;
64697;PMS5003;51124;53.394;-6.294;2023-11-22T01:01:53;4;4;
64697;PMS5003;51124;53.394;-6.294;2023-11-22T01:04:20;4;4;
64697;PMS5003;51124;53.394;-6.294;2023-11-22T01:06:48;4;4;
64697;PMS5003;51124;53.394;-6.294;2023-11-22T01:09:15;5;5;
64697;PMS5003;51124;53.394;-6.294;2023-11-22T01:11:43;5;3;
64697;PMS5003;51124;53.394;-6.294;2023-11-22T01:14:10;6;5;
64697;PMS5003;51124;53.394;-6.294;2023-11-22T01:16:37;4;4;
64697;PMS5003;51124;53.394;-6.294;2023-11-22T01:19:05;7;5;
64697;PMS5003;51124;53.394;-6.294;2023-11-22T01:21:32;3;3;
64697;PMS5003;51124;53.394;-6.294;2023-11-22T01:23:59;5;5;
64697;PMS5003;51124;53.394;-6.294;2023-11-22T01:26:26;4;4;
64697;PMS5003;51124;53.394;-6.294;2023-11-22T01:28:53;3;3;
64697;PMS5003;51124;53.394;-6.294;2023-11-22T01:31:21;5;5;
64697;PMS5003;51124;53.394;-6.294;2023-11-22T01:33:48;3;3;
64697;PMS5003;51124;53.394;-6.294;2023-11-22T01:36:15;3;3;
64697;PMS5003;51124;53.394;-6.294;2023-11-22T01:38:42;5;4;
64697;PMS5003;51124;53.394;-6.294;2023-11-22T01:41:10;5;4;
64697;PMS5003;51124;53.394;-6.294;2023-11-22T01:43:38;4;4;
64697;PMS5003;51124;53.394;-6.294;2023-11-22T01:46:06;4;4;
64697;PMS5003;51124;53.394;-6.294;2023-11-22T01:48:35;5;5;
64697;PMS5003;51124;53.394;-6.294;2023-11-22T01:51:03;5;4;
64697;PMS5003;51124;53.394;-6.294;2023-11-22T01:53:31;3;3;
64697;PMS5003;51124;53.394;-6.294;2023-11-22T01:55:59;5;3;
64697;PMS5003;51124;53.394;-6.294;2023-11-22T01:58:27;3;3;
64697;PMS5003;51124;53.394;-6.294;2023-11-22T02:00:54;7;4;
64697;PMS5003;51124;53.394;-6.294;2023-11-22T02:03:23;2;2;
64697;PMS5003;51124;53.394;-6.294;2023-11-22T02:05:50;3;3;
64697;PMS5003;51124;53.394;-6.294;2023-11-22T02:08:17;3;3;
64697;PMS5003;51124;53.394;-6.294;2023-11-22T02:10:45;4;4;
64697;PMS5003;51124;53.394;-6.294;2023-11-22T02:13:11;2;2;
64697;PMS5003;51124;53.394;-6.294;2023-11-22T02:15:39;3;3;
64697;PMS5003;51124;53.394;-6.294;2023-11-22T02:18:06;5;4;
64697;PMS5003;51124;53.394;-6.294;2023-11-22T02:20:33;3;3;
64697;PMS5003;51124;53.394;-6.294;2023-11-22T02:23:01;5;5;
64697;PMS5003;51124;53.394;-6.294;2023-11-22T02:25:32;5;3;
64697;PMS5003;51124;53.394;-6.294;2023-11-22T02:27:59;4;2;
64697;PMS5003;51124;53.394;-6.294;2023-11-22T02:30:27;2;2;
64697;PMS5003;51124;53.394;-6.294;2023-11-22T02:32:54;5;4;
64697;PMS5003;51124;53.394;-6.294;2023-11-22T02:35:21;5;4;
64697;PMS5003;51124;53.394;-6.294;2023-11-22T02:37:49;2;2;
64697;PMS5003;51124;53.394;-6.294;2023-11-22T02:40:16;5;4;
64697;PMS5003;51124;53.394;-6.294;2023-11-22T02:42:45;4;3;
64697;PMS5003;51124;53.394;-6.294;2023-11-22T02:45:13;2;2;
64697;PMS5003;51124;53.394;-6.294;2023-11-22T02:47:40;2;2;
64697;PMS5003;51124;53.394;-6.294;2023-11-22T02:50:08;5;2;
64697;PMS5003;51124;53.394;-6.294;2023-11-22T02:52:35;3;3;
64697;PMS5003;51124;53.394;-6.294;2023-11-22T02:55:03;3;3;
64697;PMS5003;51124;53.394;-6.294;2023-11-22T02:57:31;2;2;
64697;PMS5003;51124;53.394;-6.294;2023-11-22T02:59:58;2;2;
64697;PMS5003;51124;53.394;-6.294;2023-11-22T03:02:26;1;1;
64697;PMS5003;51124;53.394;-6.294;2023-11-22T03:04:53;1;1;
64697;PMS5003;51124;53.394;-6.294;2023-11-22T03:07:21;2;2;
64697;PMS5003;51124;53.394;-6.294;2023-11-22T03:09:48;4;3;
64697;PMS5003;51124;53.394;-6.294;2023-11-22T03:12:16;4;3;
64697;PMS5003;51124;53.394;-6.294;2023-11-22T03:14:43;2;2;
64697;PMS5003;51124;53.394;-6.294;2023-11-22T03:17:11;4;4;
64697;PMS5003;51124;53.394;-6.294;2023-11-22T03:19:40;2;2;
64697;PMS5003;51124;53.394;-6.294;2023-11-22T03:22:07;2;2;
64697;PMS5003;51124;53.394;-6.294;2023-11-22T03:24:34;1;1;
64697;PMS5003;51124;53.394;-6.294;2023-11-22T03:27:02;1;1;
64697;PMS5003;51124;53.394;-6.294;2023-11-22T03:29:29;3;2;
64697;PMS5003;51124;53.394;-6.294;2023-11-22T03:31:57;2;2;
64697;PMS5003;51124;53.394;-6.294;2023-11-22T03:34:24;3;2;
64697;PMS5003;51124;53.394;-6.294;2023-11-22T03:36:52;5;2;
64697;PMS5003;51124;53.394;-6.294;2023-11-22T03:39:19;4;3;
64697;PMS5003;51124;53.394;-6.294;2023-11-22T03:41:47;2;2;
64697;PMS5003;51124;53.394;-6.294;2023-11-22T03:44:14;2;2;
64697;PMS5003;51124;53.394;-6.294;2023-11-22T03:46:41;2;2;
64697;PMS5003;51124;53.394;-6.294;2023-11-22T03:49:09;3;3;
64697;PMS5003;51124;53.394;-6.294;2023-11-22T03:51:38;5;2;
64697;PMS5003;51124;53.394;-6.294;2023-11-22T03:54:07;2;2;
64697;PMS5003;51124;53.394;-6.294;2023-11-22T03:56:34;2;2;
64697;PMS5003;51124;53.394;-6.294;2023-11-22T03:59:01;2;2;
64697;PMS5003;51124;53.394;-6.294;2023-11-22T04:01:28;2;2;
64697;PMS5003;51124;53.394;-6.294;2023-11-22T04:03:56;2;2;
64697;PMS5003;51124;53.394;-6.294;2023-11-22T04:06:23;3;3;
64697;PMS5003;51124;53.394;-6.294;2023-11-22T04:08:51;4;3;
64697;PMS5003;51124;53.394;-6.294;2023-11-22T04:11:18;2;2;
64697;PMS5003;51124;53.394;-6.294;2023-11-22T04:13:45;1;1;
64697;PMS5003;51124;53.394;-6.294;2023-11-22T04:16:12;2;2;
64697;PMS5003;51124;53.394;-6.294;2023-11-22T04:18:40;1;1;
64697;PMS5003;51124;53.394;-6.294;2023-11-22T04:21:08;3;2;
64697;PMS5003;51124;53.394;-6.294;2023-11-22T04:23:35;2;2;
64697;PMS5003;51124;53.394;-6.294;2023-11-22T04:26:03;2;2;
64697;PMS5003;51124;53.394;-6.294;2023-11-22T04:28:30;3;3;
64697;PMS5003;51124;53.394;-6.294;2023-11-22T04:30:57;2;2;
64697;PMS5003;51124;53.394;-6.294;2023-11-22T04:33:25;3;3;
64697;PMS5003;51124;53.394;-6.294;2023-11-22T04:35:52;3;3;
64697;PMS5003;51124;53.394;-6.294;2023-11-22T04:38:19;3;3;
64697;PMS5003;51124;53.394;-6.294;2023-11-22T04:40:46;1;1;
64697;PMS5003;51124;53.394;-6.294;2023-11-22T04:43:14;1;1;
64697;PMS5003;51124;53.394;-6.294;2023-11-22T04:45:41;2;2;
64697;PMS5003;51124;53.394;-6.294;2023-11-22T04:48:08;2;2;
64697;PMS5003;51124;53.394;-6.294;2023-11-22T04:50:35;4;2;
64697;PMS5003;51124;53.394;-6.294;2023-11-22T04:53:03;3;2;
64697;PMS5003;51124;53.394;-6.294;2023-11-22T04:55:31;1;1;
64697;PMS5003;51124;53.394;-6.294;2023-11-22T04:57:58;2;2;
64697;PMS5003;51124;53.394;-6.294;2023-11-22T05:00:25;3;2;
64697;PMS5003;51124;53.394;-6.294;2023-11-22T05:02:52;2;2;
64697;PMS5003;51124;53.394;-6.294;2023-11-22T05:05:20;3;2;
64697;PMS5003;51124;53.394;-6.294;2023-11-22T05:07:47;4;2;
64697;PMS5003;51124;53.394;-6.294;2023-11-22T05:10:14;3;2;
64697;PMS5003;51124;53.394;-6.294;2023-11-22T05:12:43;2;2;
64697;PMS5003;51124;53.394;-6.294;2023-11-22T05:15:10;1;1;
64697;PMS5003;51124;53.394;-6.294;2023-11-22T05:17:37;1;1;
64697;PMS5003;51124;53.394;-6.294;2023-11-22T05:20:05;3;2;
64697;PMS5003;51124;53.394;-6.294;2023-11-22T05:22:33;3;3;
64697;PMS5003;51124;53.394;-6.294;2023-11-22T05:25:00;1;1;
64697;PMS5003;51124;53.394;-6.294;2023-11-22T05:27:28;2;0;
64697;PMS5003;51124;53.394;-6.294;2023-11-22T05:29:55;3;3;
64697;PMS5003;51124;53.394;-6.294;2023-11-22T05:32:22;3;1;
64697;PMS5003;51124;53.394;-6.294;2023-11-22T05:34:50;2;1;
64697;PMS5003;51124;53.394;-6.294;2023-11-22T05:37:18;2;2;
64697;PMS5003;51124;53.394;-6.294;2023-11-22T05:39:45;3;2;
64697;PMS5003;51124;53.394;-6.294;2023-11-22T05:42:12;1;1;
64697;PMS5003;51124;53.394;-6.294;2023-11-22T05:44:40;1;1;
64697;PMS5003;51124;53.394;-6.294;2023-11-22T05:47:07;1;1;
64697;PMS5003;51124;53.394;-6.294;2023-11-22T05:49:35;2;2;
64697;PMS5003;51124;53.394;-6.294;2023-11-22T05:52:02;1;1;
64697;PMS5003;51124;53.394;-6.294;2023-11-22T05:54:30;1;1;
64697;PMS5003;51124;53.394;-6.294;2023-11-22T05:56:57;1;1;
64697;PMS5003;51124;53.394;-6.294;2023-11-22T05:59:25;3;3;
64697;PMS5003;51124;53.394;-6.294;2023-11-22T06:01:52;2;2;
64697;PMS5003;51124;53.394;-6.294;2023-11-22T06:04:20;3;2;
64697;PMS5003;51124;53.394;-6.294;2023-11-22T06:06:47;5;2;
64697;PMS5003;51124;53.394;-6.294;2023-11-22T06:09:14;3;2;
64697;PMS5003;51124;53.394;-6.294;2023-11-22T06:11:42;2;2;
64697;PMS5003;51124;53.394;-6.294;2023-11-22T06:14:09;2;2;
64697;PMS5003;51124;53.394;-6.294;2023-11-22T06:16:37;2;2;
64697;PMS5003;51124;53.394;-6.294;2023-11-22T06:19:04;1;1;
64697;PMS5003;51124;53.394;-6.294;2023-11-22T06:21:32;1;1;
64697;PMS5003;51124;53.394;-6.294;2023-11-22T06:23:59;1;1;
64697;PMS5003;51124;53.394;-6.294;2023-11-22T06:26:26;1;1;
64697;PMS5003;51124;53.394;-6.294;2023-11-22T06:28:54;1;1;
64697;PMS5003;51124;53.394;-6.294;2023-11-22T06:31:21;0;0;
64697;PMS5003;51124;53.394;-6.294;2023-11-22T06:33:49;2;1;
64697;PMS5003;51124;53.394;-6.294;2023-11-22T06:36:16;2;0;
64697;PMS5003;51124;53.394;-6.294;2023-11-22T06:38:44;1;1;
64697;PMS5003;51124;53.394;-6.294;2023-11-22T06:41:11;1;0;
64697;PMS5003;51124;53.394;-6.294;2023-11-22T06:43:38;1;1;
64697;PMS5003;51124;53.394;-6.294;2023-11-22T06:46:05;2;2;
64697;PMS5003;51124;53.394;-6.294;2023-11-22T06:48:33;1;1;
64697;PMS5003;51124;53.394;-6.294;2023-11-22T06:51:00;0;0;
64697;PMS5003;51124;53.394;-6.294;2023-11-22T06:53:27;1;1;
64697;PMS5003;51124;53.394;-6.294;2023-11-22T06:55:54;0;0;
64697;PMS5003;51124;53.394;-6.294;2023-11-22T06:58:22;4;1;
64697;PMS5003;51124;53.394;-6.294;2023-11-22T07:00:49;1;1;
64697;PMS5003;51124;53.394;-6.294;2023-11-22T07:03:16;2;1;
64697;PMS5003;51124;53.394;-6.294;2023-11-22T07:05:43;1;1;
64697;PMS5003;51124;53.394;-6.294;2023-11-22T07:08:11;2;2;
64697;PMS5003;51124;53.394;-6.294;2023-11-22T07:10:39;2;1;
64697;PMS5003;51124;53.394;-6.294;2023-11-22T07:13:06;1;1;
64697;PMS5003;51124;53.394;-6.294;2023-11-22T07:15:33;1;1;
64697;PMS5003;51124;53.394;-6.294;2023-11-22T07:18:00;1;1;
64697;PMS5003;51124;53.394;-6.294;2023-11-22T07:20:28;2;2;
64697;PMS5003;51124;53.394;-6.294;2023-11-22T07:22:55;2;2;
64697;PMS5003;51124;53.394;-6.294;2023-11-22T07:25:22;1;1;
64697;PMS5003;51124;53.394;-6.294;2023-11-22T07:27:50;2;2;
64697;PMS5003;51124;53.394;-6.294;2023-11-22T07:30:17;1;1;
64697;PMS5003;51124;53.394;-6.294;2023-11-22T07:32:45;2;1;
64697;PMS5003;51124;53.394;-6.294;2023-11-22T07:35:12;2;2;
64697;PMS5003;51124;53.394;-6.294;2023-11-22T07:37:39;0;0;
64697;PMS5003;51124;53.394;-6.294;2023-11-22T07:40:07;0;0;
64697;PMS5003;51124;53.394;-6.294;2023-11-22T07:42:34;3;1;
64697;PMS5003;51124;53.394;-6.294;2023-11-22T07:45:02;1;1;
64697;PMS5003;51124;53.394;-6.294;2023-11-22T07:47:29;1;1;
64697;PMS5003;51124;53.394;-6.294;2023-11-22T07:49:57;3;2;
64697;PMS5003;51124;53.394;-6.294;2023-11-22T07:52:24;3;1;
64697;PMS5003;51124;53.394;-6.294;2023-11-22T07:54:52;2;2;
64697;PMS5003;51124;53.394;-6.294;2023-11-22T07:57:19;0;0;
64697;PMS5003;51124;53.394;-6.294;2023-11-22T07:59:46;2;2;
64697;PMS5003;51124;53.394;-6.294;2023-11-22T08:02:14;1;1;
64697;PMS5003;51124;53.394;-6.294;2023-11-22T08:04:41;1;0;
64697;PMS5003;51124;53.394;-6.294;2023-11-22T08:07:09;1;0;
64697;PMS5003;51124;53.394;-6.294;2023-11-22T08:09:36;1;1;
64697;PMS5003;51124;53.394;-6.294;2023-11-22T08:12:03;1;1;
64697;PMS5003;51124;53.394;-6.294;2023-11-22T08:14:31;1;1;
64697;PMS5003;51124;53.394;-6.294;2023-11-22T08:16:58;1;1;
64697;PMS5003;51124;53.394;-6.294;2023-11-22T08:19:25;1;1;
64697;PMS5003;51124;53.394;-6.294;2023-11-22T08:21:53;1;1;
64697;PMS5003;51124;53.394;-6.294;2023-11-22T08:24:20;1;1;
64697;PMS5003;51124;53.394;-6.294;2023-11-22T08:26:47;2;2;
64697;PMS5003;51124;53.394;-6.294;2023-11-22T08:29:15;2;1;
64697;PMS5003;51124;53.394;-6.294;2023-11-22T08:31:42;1;1;
64697;PMS5003;51124;53.394;-6.294;2023-11-22T08:34:09;2;1;
64697;PMS5003;51124;53.394;-6.294;2023-11-22T08:36:37;3;1;
64697;PMS5003;51124;53.394;-6.294;2023-11-22T08:39:04;2;1;
64697;PMS5003;51124;53.394;-6.294;2023-11-22T08:41:33;1;1;
64697;PMS5003;51124;53.394;-6.294;2023-11-22T08:44:00;2;2;
64697;PMS5003;51124;53.394;-6.294;2023-11-22T08:46:28;1;1;
64697;PMS5003;51124;53.394;-6.294;2023-11-22T08:48:55;1;1;
64697;PMS5003;51124;53.394;-6.294;2023-11-22T08:51:23;0;0;
64697;PMS5003;51124;53.394;-6.294;2023-11-22T08:53:50;1;1;
64697;PMS5003;51124;53.394;-6.294;2023-11-22T08:56:18;1;1;
64697;PMS5003;51124;53.394;-6.294;2023-11-22T08:58:45;0;0;
64697;PMS5003;51124;53.394;-6.294;2023-11-22T09:01:12;1;0;
64697;PMS5003;51124;53.394;-6.294;2023-11-22T09:03:40;0;0;
64697;PMS5003;51124;53.394;-6.294;2023-11-22T09:06:08;1;1;
64697;PMS5003;51124;53.394;-6.294;2023-11-22T09:08:35;0;0;
64697;PMS5003;51124;53.394;-6.294;2023-11-22T09:11:03;0;0;
64697;PMS5003;51124;53.394;-6.294;2023-11-22T09:13:31;0;0;
64697;PMS5003;51124;53.394;-6.294;2023-11-22T09:15:58;0;0;
64697;PMS5003;51124;53.394;-6.294;2023-11-22T09:18:25;1;0;
64697;PMS5003;51124;53.394;-6.294;2023-11-22T09:20:53;1;1;
64697;PMS5003;51124;53.394;-6.294;2023-11-22T09:23:21;1;1;
64697;PMS5003;51124;53.394;-6.294;2023-11-22T09:25:49;1;1;
64697;PMS5003;51124;53.394;-6.294;2023-11-22T09:28:16;0;0;
64697;PMS5003;51124;53.394;-6.294;2023-11-22T09:30:44;1;1;
64697;PMS5003;51124;53.394;-6.294;2023-11-22T09:33:14;2;2;
64697;PMS5003;51124;53.394;-6.294;2023-11-22T09:35:39;0;0;
64697;PMS5003;51124;53.394;-6.294;2023-11-22T09:38:07;1;1;
64697;PMS5003;51124;53.394;-6.294;2023-11-22T09:40:35;1;1;
64697;PMS5003;51124;53.394;-6.294;2023-11-22T09:43:05;0;0;
64697;PMS5003;51124;53.394;-6.294;2023-11-22T09:45:32;1;1;
64697;PMS5003;51124;53.394;-6.294;2023-11-22T09:47:59;1;1;
64697;PMS5003;51124;53.394;-6.294;2023-11-22T09:50:34;2;1;
64697;PMS5003;51124;53.394;-6.294;2023-11-22T09:53:05;0;0;
64697;PMS5003;51124;53.394;-6.294;2023-11-22T09:55:34;1;1;
64697;PMS5003;51124;53.394;-6.294;2023-11-22T09:58:01;2;0;
64697;PMS5003;51124;53.394;-6.294;2023-11-22T10:00:30;1;1;
64697;PMS5003;51124;53.394;-6.294;2023-11-22T10:03:05;0;0;
64697;PMS5003;51124;53.394;-6.294;2023-11-22T10:05:26;3;1;
64697;PMS5003;51124;53.394;-6.294;2023-11-22T10:07:53;0;0;
64697;PMS5003;51124;53.394;-6.294;2023-11-22T10:10:21;1;1;
64697;PMS5003;51124;53.394;-6.294;2023-11-22T10:12:48;0;0;
64697;PMS5003;51124;53.394;-6.294;2023-11-22T10:15:17;1;1;
64697;PMS5003;51124;53.394;-6.294;2023-11-22T10:17:47;0;0;
64697;PMS5003;51124;53.394;-6.294;2023-11-22T10:20:19;0;0;
64697;PMS5003;51124;53.394;-6.294;2023-11-22T10:22:46;2;1;
64697;PMS5003;51124;53.394;-6.294;2023-11-22T10:25:14;5;5;
64697;PMS5003;51124;53.394;-6.294;2023-11-22T10:27:41;5;5;
64697;PMS5003;51124;53.394;-6.294;2023-11-22T10:30:09;4;2;
64697;PMS5003;51124;53.394;-6.294;2023-11-22T10:32:37;3;2;
64697;PMS5003;51124;53.394;-6.294;2023-11-22T10:35:05;3;2;
64697;PMS5003;51124;53.394;-6.294;2023-11-22T10:37:33;3;3;
64697;PMS5003;51124;53.394;-6.294;2023-11-22T10:40:00;4;3;
64697;PMS5003;51124;53.394;-6.294;2023-11-22T10:42:29;6;3;
64697;PMS5003;51124;53.394;-6.294;2023-11-22T10:44:57;5;3;
64697;PMS5003;51124;53.394;-6.294;2023-11-22T10:47:26;2;2;
64697;PMS5003;51124;53.394;-6.294;2023-11-22T10:49:54;3;3;
64697;PMS5003;51124;53.394;-6.294;2023-11-22T10:52:21;3;3;
64697;PMS5003;51124;53.394;-6.294;2023-11-22T10:54:55;3;3;
64697;PMS5003;51124;53.394;-6.294;2023-11-22T10:57:26;4;4;
64697;PMS5003;51124;53.394;-6.294;2023-11-22T10:59:56;3;3;
64697;PMS5003;51124;53.394;-6.294;2023-11-22T11:02:27;5;5;
64697;PMS5003;51124;53.394;-6.294;2023-11-22T11:05:00;5;5;
64697;PMS5003;51124;53.394;-6.294;2023-11-22T11:07:25;5;5;
64697;PMS5003;51124;53.394;-6.294;2023-11-22T11:09:55;5;5;
64697;PMS5003;51124;53.394;-6.294;2023-11-22T11:12:24;6;5;
64697;PMS5003;51124;53.394;-6.294;2023-11-22T11:14:51;6;5;
64697;PMS5003;51124;53.394;-6.294;2023-11-22T11:17:19;6;4;
64697;PMS5003;51124;53.394;-6.294;2023-11-22T11:19:47;5;4;
64697;PMS5003;51124;53.394;-6.294;2023-11-22T11:22:14;6;3;
64697;PMS5003;51124;53.394;-6.294;2023-11-22T11:24:41;8;4;
64697;PMS5003;51124;53.394;-6.294;2023-11-22T11:27:12;6;4;
64697;PMS5003;51124;53.394;-6.294;2023-11-22T11:29:40;5;5;
64697;PMS5003;51124;53.394;-6.294;2023-11-22T11:32:09;6;3;
64697;PMS5003;51124;53.394;-6.294;2023-11-22T11:34:47;6;4;
64697;PMS5003;51124;53.394;-6.294;2023-11-22T11:37:16;6;6;
64697;PMS5003;51124;53.394;-6.294;2023-11-22T11:39:45;5;5;
64697;PMS5003;51124;53.394;-6.294;2023-11-22T11:42:13;3;3;
64697;PMS5003;51124;53.394;-6.294;2023-11-22T11:44:50;6;4;
64697;PMS5003;51124;53.394;-6.294;2023-11-22T11:47:15;3;3;
64697;PMS5003;51124;53.394;-6.294;2023-11-22T11:49:42;2;2;
64697;PMS5003;51124;53.394;-6.294;2023-11-22T11:52:10;4;4;
64697;PMS5003;51124;53.394;-6.294;2023-11-22T11:54:37;4;4;
64697;PMS5003;51124;53.394;-6.294;2023-11-22T11:57:06;5;4;
64697;PMS5003;51124;53.394;-6.294;2023-11-22T11:59:33;2;2;
64697;PMS5003;51124;53.394;-6.294;2023-11-22T12:02:02;5;4;
64697;PMS5003;51124;53.394;-6.294;2023-11-22T12:04:30;8;5;
64697;PMS5003;51124;53.394;-6.294;2023-11-22T12:06:57;3;3;
64697;PMS5003;51124;53.394;-6.294;2023-11-22T12:09:25;4;4;
64697;PMS5003;51124;53.394;-6.294;2023-11-22T12:11:53;4;3;
64697;PMS5003;51124;53.394;-6.294;2023-11-22T12:14:20;5;3;
64697;PMS5003;51124;53.394;-6.294;2023-11-22T12:16:50;3;3;
64697;PMS5003;51124;53.394;-6.294;2023-11-22T12:19:20;4;4;
64697;PMS5003;51124;53.394;-6.294;2023-11-22T12:21:48;5;5;
64697;PMS5003;51124;53.394;-6.294;2023-11-22T12:24:16;5;3;
64697;PMS5003;51124;53.394;-6.294;2023-11-22T12:26:44;4;3;
64697;PMS5003;51124;53.394;-6.294;2023-11-22T12:29:13;4;3;
64697;PMS5003;51124;53.394;-6.294;2023-11-22T12:31:44;3;3;
64697;PMS5003;51124;53.394;-6.294;2023-11-22T12:34:12;4;3;
64697;PMS5003;51124;53.394;-6.294;2023-11-22T12:36:40;3;2;
64697;PMS5003;51124;53.394;-6.294;2023-11-22T12:39:08;5;3;
64697;PMS5003;51124;53.394;-6.294;2023-11-22T12:41:35;4;3;
64697;PMS5003;51124;53.394;-6.294;2023-11-22T12:44:06;4;3;
64697;PMS5003;51124;53.394;-6.294;2023-11-22T12:46:49;3;3;
64697;PMS5003;51124;53.394;-6.294;2023-11-22T12:49:07;4;4;
64697;PMS5003;51124;53.394;-6.294;2023-11-22T12:51:34;4;4;
64697;PMS5003;51124;53.394;-6.294;2023-11-22T12:54:02;3;2;
64697;PMS5003;51124;53.394;-6.294;2023-11-22T12:56:29;5;2;
64697;PMS5003;51124;53.394;-6.294;2023-11-22T12:58:57;2;2;
64697;PMS5003;51124;53.394;-6.294;2023-11-22T13:01:24;3;3;
64697;PMS5003;51124;53.394;-6.294;2023-11-22T13:03:51;3;3;
64697;PMS5003;51124;53.394;-6.294;2023-11-22T13:06:18;5;5;
64697;PMS5003;51124;53.394;-6.294;2023-11-22T13:08:45;2;2;
64697;PMS5003;51124;53.394;-6.294;2023-11-22T13:11:13;3;3;
64697;PMS5003;51124;53.394;-6.294;2023-11-22T13:13:40;3;3;
64697;PMS5003;51124;53.394;-6.294;2023-11-22T13:16:07;3;3;
64697;PMS5003;51124;53.394;-6.294;2023-11-22T13:18:34;4;2;
64697;PMS5003;51124;53.394;-6.294;2023-11-22T13:21:02;3;3;
64697;PMS5003;51124;53.394;-6.294;2023-11-22T13:23:30;4;3;
64697;PMS5003;51124;53.394;-6.294;2023-11-22T13:25:57;3;3;
64697;PMS5003;51124;53.394;-6.294;2023-11-22T13:28:26;3;3;
64697;PMS5003;51124;53.394;-6.294;2023-11-22T13:30:54;3;3;
64697;PMS5003;51124;53.394;-6.294;2023-11-22T13:33:22;3;3;
64697;PMS5003;51124;53.394;-6.294;2023-11-22T13:35:49;2;2;
64697;PMS5003;51124;53.394;-6.294;2023-11-22T13:38:16;5;3;
64697;PMS5003;51124;53.394;-6.294;2023-11-22T13:40:44;2;2;
64697;PMS5003;51124;53.394;-6.294;2023-11-22T13:43:12;5;5;
64697;PMS5003;51124;53.394;-6.294;2023-11-22T13:45:39;4;3;
64697;PMS5003;51124;53.394;-6.294;2023-11-22T13:48:07;5;4;
64697;PMS5003;51124;53.394;-6.294;2023-11-22T13:50:34;2;2;
64697;PMS5003;51124;53.394;-6.294;2023-11-22T13:53:04;2;2;
64697;PMS5003;51124;53.394;-6.294;2023-11-22T13:55:31;4;4;
64697;PMS5003;51124;53.394;-6.294;2023-11-22T13:57:59;5;3;
64697;PMS5003;51124;53.394;-6.294;2023-11-22T14:00:27;2;2;
64697;PMS5003;51124;53.394;-6.294;2023-11-22T14:02:55;2;2;
64697;PMS5003;51124;53.394;-6.294;2023-11-22T14:05:23;1;1;
64697;PMS5003;51124;53.394;-6.294;2023-11-22T14:07:51;3;2;
64697;PMS5003;51124;53.394;-6.294;2023-11-22T14:10:18;2;2;
64697;PMS5003;51124;53.394;-6.294;2023-11-22T14:12:46;3;3;
64697;PMS5003;51124;53.394;-6.294;2023-11-22T14:15:13;2;2;
64697;PMS5003;51124;53.394;-6.294;2023-11-22T14:17:40;3;2;
64697;PMS5003;51124;53.394;-6.294;2023-11-22T14:20:09;2;2;
64697;PMS5003;51124;53.394;-6.294;2023-11-22T14:22:37;3;2;
64697;PMS5003;51124;53.394;-6.294;2023-11-22T14:25:05;1;1;
64697;PMS5003;51124;53.394;-6.294;2023-11-22T14:27:33;2;2;
64697;PMS5003;51124;53.394;-6.294;2023-11-22T14:30:00;2;2;
64697;PMS5003;51124;53.394;-6.294;2023-11-22T14:32:28;2;2;
64697;PMS5003;51124;53.394;-6.294;2023-11-22T14:34:56;2;2;
64697;PMS5003;51124;53.394;-6.294;2023-11-22T14:37:23;2;2;
64697;PMS5003;51124;53.394;-6.294;2023-11-22T14:39:50;2;2;
64697;PMS5003;51124;53.394;-6.294;2023-11-22T14:42:18;3;3;
64697;PMS5003;51124;53.394;-6.294;2023-11-22T14:44:45;3;2;
64697;PMS5003;51124;53.394;-6.294;2023-11-22T14:47:13;1;1;
64697;PMS5003;51124;53.394;-6.294;2023-11-22T14:49:41;2;1;
64697;PMS5003;51124;53.394;-6.294;2023-11-22T14:52:08;3;3;
64697;PMS5003;51124;53.394;-6.294;2023-11-22T14:54:35;2;2;
64697;PMS5003;51124;53.394;-6.294;2023-11-22T14:57:03;2;2;
64697;PMS5003;51124;53.394;-6.294;2023-11-22T14:59:31;3;2;
64697;PMS5003;51124;53.394;-6.294;2023-11-22T15:01:59;1;1;
64697;PMS5003;51124;53.394;-6.294;2023-11-22T15:04:26;0;0;
64697;PMS5003;51124;53.394;-6.294;2023-11-22T15:06:53;1;1;
64697;PMS5003;51124;53.394;-6.294;2023-11-22T15:09:23;2;2;
64697;PMS5003;51124;53.394;-6.294;2023-11-22T15:11:51;5;3;
64697;PMS5003;51124;53.394;-6.294;2023-11-22T15:14:18;4;3;
64697;PMS5003;51124;53.394;-6.294;2023-11-22T15:16:45;2;2;
64697;PMS5003;51124;53.394;-6.294;2023-11-22T15:19:13;4;3;
64697;PMS5003;51124;53.394;-6.294;2023-11-22T15:21:41;2;2;
64697;PMS5003;51124;53.394;-6.294;2023-11-22T15:24:08;2;2;
64697;PMS5003;51124;53.394;-6.294;2023-11-22T15:26:36;3;1;
64697;PMS5003;51124;53.394;-6.294;2023-11-22T15:29:03;3;3;
64697;PMS5003;51124;53.394;-6.294;2023-11-22T15:31:31;3;2;
64697;PMS5003;51124;53.394;-6.294;2023-11-22T15:33:58;2;2;
64697;PMS5003;51124;53.394;-6.294;2023-11-22T15:36:26;1;1;
64697;PMS5003;51124;53.394;-6.294;2023-11-22T15:38:54;3;3;
64697;PMS5003;51124;53.394;-6.294;2023-11-22T15:41:21;0;0;
64697;PMS5003;51124;53.394;-6.294;2023-11-22T15:43:48;4;1;
64697;PMS5003;51124;53.394;-6.294;2023-11-22T15:46:15;7;4;
64697;PMS5003;51124;53.394;-6.294;2023-11-22T15:48:43;4;2;
64697;PMS5003;51124;53.394;-6.294;2023-11-22T15:51:10;4;2;
64697;PMS5003;51124;53.394;-6.294;2023-11-22T15:53:37;2;2;
64697;PMS5003;51124;53.394;-6.294;2023-11-22T15:56:43;3;2;
64697;PMS5003;51124;53.394;-6.294;2023-11-22T15:58:30;8;7;
64697;PMS5003;51124;53.394;-6.294;2023-11-22T16:00:57;17;16;
64697;PMS5003;51124;53.394;-6.294;2023-11-22T16:03:24;11;10;
64697;PMS5003;51124;53.394;-6.294;2023-11-22T16:05:52;10;6;
64697;PMS5003;51124;53.394;-6.294;2023-11-22T16:08:19;7;5;
64697;PMS5003;51124;53.394;-6.294;2023-11-22T16:10:47;8;7;
64697;PMS5003;51124;53.394;-6.294;2023-11-22T16:13:14;10;10;
64697;PMS5003;51124;53.394;-6.294;2023-11-22T16:15:41;12;10;
64697;PMS5003;51124;53.394;-6.294;2023-11-22T16:18:08;12;12;
64697;PMS5003;51124;53.394;-6.294;2023-11-22T16:20:36;9;7;
64697;PMS5003;51124;53.394;-6.294;2023-11-22T16:23:03;8;7;
64697;PMS5003;51124;53.394;-6.294;2023-11-22T16:25:30;7;6;
64697;PMS5003;51124;53.394;-6.294;2023-11-22T16:27:57;8;5;
64697;PMS5003;51124;53.394;-6.294;2023-11-22T16:30:25;8;8;
64697;PMS5003;51124;53.394;-6.294;2023-11-22T16:32:52;9;5;
64697;PMS5003;51124;53.394;-6.294;2023-11-22T16:35:19;5;5;